Kandalaksha, Russia
Current Conditions -  °F | °C
As of 4:50 AM on Friday 19 Dec 2014 (Local Time) from EFKS Reporting Station
Clear Clear  
Wind Chill:   Ceiling: Unl
Heat Index:   Visibility: 6mi
Dew Point:   Wind: 2mph
Humidity: 100%   Direction: 120°ESE
Pressure: 29.26"   Gusts: NA
Location:  67.16°N, 32.41°E
Report Text: EFKS 190150Z AUTO 12002KT CAVOK M13/M13 Q0991
Loading
Personal Weather Stations






























Interactive Weather Map New forecast layout! Learn more

10-Day Weather Forecast

Advertisements
Track Severe Weather on mobile